Latest Weather Observations for Gosford

IDN60801

Issued at 1:03 pm EST Sunday 31 July 2016 (issued every 30 minutes, with the page automatically refreshed every 10 minutes)

About weather observations | Map of weather stations | Latest weather observations for NSW | Other Formats
Station Details ID: 061425 Name: GOSFORD AWS Lat: -33.44 Lon: 151.36 Height: 7.0 m
Data from the previous 72 hours. | See also: Recent months at Gosford
Date/Time
EST
Temp
°C
App
Temp
°C
Dew
Point
°C
Rel
Hum
%
Delta-T
°C
Wind Press
QNH
hPa
Press
MSL
hPa
Rain since
9am
mm
Dir  Spd
km/h
Gust
km/h
Spd
kts
Gust
kts
31/01:00pm 18.8 16.9 6.9 46 6.0 WNW 6 11 3 6 - - 0.0
31/12:30pm 19.1 17.2 6.9 45 6.1 NW 6 17 3 9 - - 0.0
31/12:00pm 18.1 17.1 7.5 50 5.4 SW 2 4 1 2 - - 0.0
31/11:30am 17.6 16.2 7.4 51 5.1 WNW 4 7 2 4 - - 0.0
31/11:00am 17.6 15.5 6.8 49 5.4 WNW 7 13 4 7 - - 0.0
31/10:30am 17.6 14.8 6.8 49 5.4 W 11 17 6 9 - - 0.0
31/10:00am 17.6 15.1 6.5 48 5.5 WNW 9 15 5 8 - - 0.0
31/09:30am 16.4 14.3 8.1 58 4.2 SW 9 13 5 7 - - 0.0
31/09:00am 15.4 13.5 7.4 59 4.0 WSW 7 13 4 7 - - 0.0
31/08:30am 14.2 11.9 7.5 64 3.3 W 9 13 5 7 - - 0.0
31/08:00am 13.4 12.6 8.3 71 2.5 SSW 2 7 1 4 - - 0.0
31/07:30am 12.0 10.6 7.3 73 2.3 WNW 4 9 2 5 - - 0.0
31/07:00am 13.5 10.1 7.5 67 2.9 NW 15 24 8 13 - - 0.0
31/06:30am 8.5 6.9 8.1 97 0.2 SSE 6 9 3 5 - - 0.0
31/06:00am 8.0 7.4 7.6 97 0.2 CALM 0 2 0 1 - - 0.0
31/05:30am 8.8 8.1 8.4 97 0.2 SW 2 4 1 2 - - 0.0
31/05:00am 8.6 7.8 8.3 98 0.1 N 2 6 1 3 - - 0.0
31/04:30am 7.9 6.9 7.5 97 0.2 ENE 2 6 1 3 - - 0.0
31/04:00am 8.0 7.1 7.6 97 0.2 ENE 2 6 1 3 - - 0.0
31/03:30am 8.2 7.7 7.8 97 0.2 CALM 0 0 0 0 - - 0.0
31/03:00am 8.2 7.7 7.9 98 0.1 CALM 0 0 0 0 - - 0.0
31/02:30am 7.8 7.2 7.5 98 0.1 CALM 0 0 0 0 - - 0.0
31/02:00am 7.6 7.0 7.3 98 0.1 CALM 0 0 0 0 - - 0.0
31/01:30am 7.3 6.6 6.9 97 0.2 CALM 0 0 0 0 - - 0.0
31/01:00am 7.3 6.6 6.9 97 0.2 CALM 0 0 0 0 - - 0.0
31/12:30am 7.6 7.0 7.2 97 0.2 CALM 0 0 0 0 - - 0.0
31/12:00am 7.6 6.9 7.0 96 0.3 CALM 0 0 0 0 - - 0.0
 
Date/Time
EST
Temp
°C
App
Temp
°C
Dew
Point
°C
Rel
Hum
%
Delta-T
°C
Wind Press
QNH
hPa
Press
MSL
hPa
Rain since
9am
mm
Dir  Spd
km/h
Gust
km/h
Spd
kts
Gust
kts
30/11:30pm 8.1 7.5 7.5 96 0.3 CALM 0 0 0 0 - - 0.0
30/11:00pm 8.3 7.8 7.7 96 0.3 CALM 0 0 0 0 - - 0.0
30/10:30pm 8.7 8.3 8.1 96 0.3 CALM 0 0 0 0 - - 0.0
30/10:00pm 9.2 8.9 8.6 96 0.3 CALM 0 0 0 0 - - 0.0
30/09:30pm 8.9 8.4 8.0 94 0.4 CALM 0 0 0 0 - - 0.0
30/09:00pm 10.0 9.8 9.2 95 0.4 CALM 0 0 0 0 - - 0.0
30/08:30pm 10.1 9.9 9.2 94 0.4 CALM 0 0 0 0 - - 0.0
30/08:00pm 10.3 10.1 9.2 93 0.5 CALM 0 0 0 0 - - 0.0
30/07:30pm 10.9 10.1 9.7 92 0.6 ENE 4 4 2 2 - - 0.0
30/07:00pm 11.1 10.7 9.7 91 0.7 S 2 4 1 2 - - 0.0
30/06:30pm 11.2 11.0 9.1 87 1.0 CALM 0 0 0 0 - - 0.0
30/06:00pm 12.5 12.6 10.0 85 1.3 CALM 0 0 0 0 - - 0.0
30/05:30pm 13.2 13.2 9.8 80 1.7 CALM 0 0 0 0 - - 0.0
30/05:00pm 14.5 13.9 10.3 76 2.2 N 4 6 2 3 - - 0.0
30/04:30pm 16.5 15.9 10.4 67 3.2 SSE 4 9 2 5 - - 0.0
30/04:00pm 17.0 16.0 10.4 65 3.5 SSE 6 9 3 5 - - 0.0
30/03:30pm 17.1 15.8 9.8 62 3.8 SE 7 11 4 6 - - 0.0
30/03:00pm 17.3 16.0 10.0 62 3.9 S 7 13 4 7 - - 0.0
30/02:30pm 18.0 16.7 10.1 60 4.2 S 7 11 4 6 - - 0.0
30/02:00pm 18.1 16.7 9.5 57 4.5 SSW 7 15 4 8 - - 0.0
30/01:30pm 17.6 16.2 9.0 57 4.5 SSW 6 11 3 6 - - 0.0
30/01:00pm 17.6 15.9 8.5 55 4.7 SSW 7 11 4 6 - - 0.0
30/12:30pm 17.0 15.3 8.2 56 4.5 SSW 7 11 4 6 - - 0.0
30/12:00pm 16.3 14.4 7.5 56 4.4 SSW 7 11 4 6 - - 0.0
30/11:30am 15.8 13.8 7.3 57 4.2 SSW 7 9 4 5 - - 0.0
30/11:00am 15.8 13.9 6.8 55 4.4 SW 6 9 3 5 - - 0.0
30/10:30am 14.8 11.8 6.1 56 4.2 W 11 15 6 8 - - 0.0
30/10:00am 14.0 10.9 5.6 57 4.0 WNW 11 15 6 8 - - 0.0
30/09:30am 12.9 10.2 5.8 62 3.3 W 9 15 5 8 - - 0.0
30/09:00am 12.0 9.6 5.2 63 3.1 W 7 15 4 8 - - 0.0
30/08:30am 11.0 8.6 5.3 68 2.6 W 7 11 4 6 - - 0.0
30/08:00am 9.3 6.9 5.1 75 1.9 W 7 9 4 5 - - 0.0
30/07:30am 7.2 4.8 4.5 83 1.2 WSW 6 7 3 4 - - 0.0
30/07:00am 5.8 4.1 4.1 89 0.7 W 2 6 1 3 - - 0.0
30/06:30am 5.2 3.4 3.5 89 0.7 WSW 2 6 1 3 - - 0.0
30/06:00am 5.7 4.0 3.9 88 0.8 W 2 4 1 2 - - 0.0
30/05:30am 5.9 4.1 3.7 86 0.9 WSW 2 4 1 2 - - 0.0
30/05:00am 6.0 4.6 3.8 86 0.9 CALM 0 2 0 1 - - 0.0
30/04:30am 7.1 5.0 3.7 79 1.4 W 4 6 2 3 - - 0.0
30/04:00am 7.8 5.7 3.7 75 1.8 W 4 9 2 5 - - 0.0
30/03:30am 8.2 5.5 3.7 73 1.9 W 7 9 4 5 - - 0.0
30/03:00am 8.0 5.4 4.0 76 1.7 W 7 11 4 6 - - 0.0
30/02:30am 8.8 6.1 3.8 71 2.2 W 7 11 4 6 - - 0.0
30/02:00am 9.1 6.6 3.9 70 2.3 W 6 9 3 5 - - 0.0
30/01:30am 8.4 6.3 3.7 72 2.0 W 4 9 2 5 - - 0.0
30/01:00am 9.0 6.5 3.6 69 2.3 WNW 6 7 3 4 - - 0.0
30/12:30am 9.4 6.4 4.0 69 2.4 W 9 15 5 8 - - 0.0
30/12:00am 8.7 5.6 3.7 71 2.2 WNW 9 15 5 8 - - 0.0
 
Date/Time
EST
Temp
°C
App
Temp
°C
Dew
Point
°C
Rel
Hum
%
Delta-T
°C
Wind Press
QNH
hPa
Press
MSL
hPa
Rain since
9am
mm
Dir  Spd
km/h
Gust
km/h
Spd
kts
Gust
kts
29/11:30pm 9.0 6.5 3.8 70 2.3 W 6 9 3 5 - - 0.0
29/11:00pm 8.4 5.8 4.4 76 1.8 WNW 7 13 4 7 - - 0.0
29/10:30pm 8.2 5.3 4.6 78 1.6 W 9 13 5 7 - - 0.0
29/10:00pm 6.5 5.4 5.3 92 0.5 CALM 0 0 0 0 - - 0.0
29/09:30pm 7.4 6.5 6.0 91 0.6 CALM 0 2 0 1 - - 0.0
29/09:00pm 7.3 6.3 5.6 89 0.8 CALM 0 0 0 0 - - 0.0
29/08:30pm 8.0 7.2 6.3 89 0.8 CALM 0 0 0 0 - - 0.0
29/08:00pm 9.1 8.0 6.9 86 1.0 NNW 2 2 1 1 - - 0.0
29/07:30pm 9.2 8.6 7.3 88 0.9 CALM 0 0 0 0 - - 0.0
29/07:00pm 9.1 8.0 6.9 86 1.0 E 2 7 1 4 - - 0.0
29/06:30pm 10.4 9.3 7.1 80 1.6 N 2 4 1 2 - - 0.0
29/06:00pm 10.9 9.5 7.2 78 1.8 E 4 4 2 2 - - 0.0
29/05:30pm 12.2 11.5 6.9 70 2.5 CALM 0 0 0 0 - - 0.0
29/05:00pm 13.5 12.0 6.8 64 3.2 N 4 6 2 3 - - 0.0
29/04:30pm 15.9 14.8 7.1 56 4.3 NW 2 6 1 3 - - 0.0
29/04:00pm 17.9 15.0 4.8 42 6.3 W 9 13 5 7 - - 0.0
29/03:30pm 18.3 16.1 5.2 42 6.3 NNW 6 9 3 5 - - 0.0
29/03:00pm 18.1 15.1 3.9 39 6.7 WNW 9 17 5 9 - - 0.0
29/02:30pm 18.0 15.3 3.5 38 6.8 NW 7 13 4 7 - - 0.0
29/02:00pm 18.1 15.5 4.3 40 6.5 SSW 7 19 4 10 - - 0.0
29/01:30pm 17.4 14.9 3.7 40 6.4 SSW 6 7 3 4 - - 0.0
29/01:00pm 16.5 13.8 3.6 42 6.0 S 7 9 4 5 - - 0.0
29/12:30pm 16.3 13.6 3.7 43 5.8 S 7 9 4 5 - - 0.0
29/12:00pm 15.9 13.5 4.3 46 5.4 SSW 6 9 3 5 - - 0.0
29/11:30am 15.5 13.5 4.6 48 5.1 SE 4 7 2 4 - - 0.0
29/11:00am 14.2 12.3 4.8 53 4.4 S 4 7 2 4 - - 0.0
29/10:30am 12.9 10.9 4.6 57 3.8 SSE 4 7 2 4 - - 0.0
29/10:00am 12.4 10.4 4.4 58 3.6 WSW 4 7 2 4 - - 0.0
29/09:30am 11.4 9.7 4.2 61 3.2 S 2 6 1 3 - - 0.0
29/09:00am 9.9 8.6 3.9 66 2.6 CALM 0 0 0 0 - - 0.0
29/08:30am 8.7 7.5 4.5 75 1.9 CALM 0 0 0 0 - - 0.0
29/08:00am 6.2 5.0 4.4 88 0.8 CALM 0 0 0 0 - - 0.0
29/07:30am 4.0 2.6 3.3 95 0.3 CALM 0 0 0 0 - - 0.0
29/07:00am 3.0 1.3 2.1 94 0.4 CALM 0 0 0 0 - - 0.0
29/06:30am 3.1 1.5 2.2 94 0.4 CALM 0 0 0 0 - - 0.0
29/06:00am 3.4 1.8 2.2 92 0.5 CALM 0 0 0 0 - - 0.0
29/05:30am 3.8 2.2 2.6 92 0.5 CALM 0 0 0 0 - - 0.0
29/05:00am 4.4 2.9 3.1 91 0.5 CALM 0 2 0 1 - - 0.0
29/04:30am 4.5 3.0 2.8 89 0.7 CALM 0 0 0 0 - - 0.0
29/04:00am 4.9 3.5 3.4 90 0.6 CALM 0 2 0 1 - - 0.0
29/03:30am 5.4 3.2 3.1 85 0.9 NW 4 6 2 3 - - 0.0
29/03:00am 5.5 4.1 3.7 88 0.8 CALM 0 0 0 0 - - 0.0
29/02:30am 5.9 4.5 3.6 85 1.0 CALM 0 0 0 0 - - 0.0
29/02:00am 6.3 4.5 3.6 83 1.1 N 2 4 1 2 - - 0.0
29/01:30am 5.4 4.0 3.7 89 0.7 CALM 0 0 0 0 - - 0.0
29/01:00am 5.6 4.3 3.9 89 0.7 CALM 0 0 0 0 - - 0.0
29/12:30am 6.2 4.9 4.0 86 0.9 CALM 0 4 0 2 - - 0.0
29/12:00am 6.8 4.7 4.1 83 1.2 WNW 4 6 2 3 - - 0.0
 
Date/Time
EST
Temp
°C
App
Temp
°C
Dew
Point
°C
Rel
Hum
%
Delta-T
°C
Wind Press
QNH
hPa
Press
MSL
hPa
Rain since
9am
mm
Dir  Spd
km/h
Gust
km/h
Spd
kts
Gust
kts
28/11:30pm 6.7 5.1 4.4 85 1.0 WNW 2 4 1 2 - - 0.0
28/11:00pm 7.6 6.4 4.4 80 1.4 CALM 0 2 0 1 - - 0.0
28/10:30pm 8.8 6.9 4.8 76 1.8 WNW 4 6 2 3 - - 0.0
28/10:00pm 9.8 7.9 5.0 72 2.2 WNW 4 7 2 4 - - 0.0
28/09:30pm 10.4 7.5 4.8 68 2.5 W 9 11 5 6 - - 0.0
28/09:00pm 11.0 8.7 5.5 69 2.5 W 7 11 4 6 - - 0.0
28/08:30pm 8.9 7.3 6.3 84 1.2 WNW 4 7 2 4 - - 0.0
28/08:00pm 9.2 7.7 7.0 86 1.0 W 4 6 2 3 - - 0.0
28/07:30pm 9.7 8.3 7.1 84 1.2 NW 4 6 2 3 - - 0.0
28/07:00pm 10.0 8.9 7.1 82 1.4 NE 2 4 1 2 - - 0.0
28/06:30pm 10.7 10.1 7.4 80 1.6 CALM 0 0 0 0 - - 0.0
28/06:00pm 11.9 11.3 7.4 74 2.2 CALM 0 0 0 0 - - 0.0
28/05:30pm 12.5 11.9 7.6 72 2.4 CALM 0 4 0 2 - - 0.0
28/05:00pm 14.1 12.7 7.2 63 3.4 N 4 6 2 3 - - 0.0
28/04:30pm 15.8 13.9 6.8 55 4.4 NNW 6 6 3 3 - - 0.0
28/04:00pm 18.0 15.6 5.2 43 6.2 NNW 7 15 4 8 - - 0.0
28/03:30pm 18.4 15.8 4.2 39 6.7 NW 7 13 4 7 - - 0.0
28/03:00pm 18.6 16.8 3.6 37 7.0 WNW 2 9 1 5 - - 0.0
28/02:30pm 18.3 14.9 3.8 38 6.8 WNW 11 17 6 9 - - 0.0
28/02:00pm 18.0 15.0 4.2 40 6.5 WNW 9 15 5 8 - - 0.0
28/01:30pm 17.4 13.6 3.7 40 6.4 WNW 13 19 7 10 - - 0.0

Other Formats:

Comma delimited format used in spreadsheet applications
http://www.bom.gov.au/fwo/IDN60801/IDN60801.94782.axf

JavaScript Object Notation format (JSON) in row-major order
http://www.bom.gov.au/fwo/IDN60801/IDN60801.94782.json